Bentonsport, Iowa
Current Conditions -  °F | °C
As of 6:15 PM on Tuesday 25 Nov 2014 (Local Time) from KFFL Reporting Station
Clear Clear  
Wind Chill: 19°   Ceiling: Unl
Heat Index: 25°   Visibility: 10mi
Dew Point: 19°   Wind: 5mph
Humidity: 80%   Direction: 140°SE
Pressure: 30.12"   Gusts: NA
Location:  40.7687°N, 92.0788°W
Report Text: KFFL 260015Z AUTO 14004KT 10SM CLR M04/M07 A3012 RMK AO2
Loading
Personal Weather Stations






























Interactive Weather Map New forecast layout! Learn more

10-Day Weather Forecast

Advertisements
Track Severe Weather on mobile